Fruit Cove, Florida
Current Conditions -  °F | °C
As of 12:53 AM on Tuesday 21 Oct 2014 (Local Time) from KNIP Reporting Station
Broken Clouds Broken Clouds  
Wind Chill: 77°   Ceiling: 23000
Heat Index: 79°   Visibility: 10mi
Dew Point: 67°   Wind: 6mph
Humidity: 71%   Direction: 190°S
Pressure: 29.97"   Gusts: NA
Location:  30.0735°N, 81.5808°W
Report Text: KNIP 210453Z 19005KT 10SM FEW035 BKN230 25/19 A2997 RMK AO2 SLP144 T02500194 402890189
Loading
Personal Weather Stations






























Interactive Weather Map
Tropical Storm Tracking
New forecast layout! Learn more

10-Day Weather Forecast

Advertisements
Track Severe Weather on mobile